Time;durP1;ratioP1;P1;durP2;ratioP2;P2;SDS_P1;SDS_P2;PMS_P1;PMS_P2;Temp;Humidity;BMP_temperature;BMP_pressure;BME280_temperature;BME280_humidity;BME280_pressure;Samples;Min_cycle;Max_cycle;Signal;HPM_P1;HPM_P2
2022/11/04 00:01:05;;;;;;;81.03;59.13;;;;;;;;;;5125057;27;20056;-78
2022/11/04 00:03:30;;;;;;;67.70;48.63;;;;;;;;;;5124877;27;20031;-77
2022/11/04 00:05:59;;;;;;;60.55;45.95;;;;;;;;;;5119384;27;20031;-77
2022/11/04 00:08:24;;;;;;;67.60;50.38;;;;;;;;;;5119958;27;20023;-77
2022/11/04 00:13:37;;;;;;;67.22;47.63;;;;;;;;;;5123729;27;20087;-77
2022/11/04 00:18:46;;;;;;;74.40;55.83;;;;;;;;;;5117267;27;20095;-77
2022/11/04 00:29:23;;;;;;;116.40;83.57;;;;;;;;;;5125586;27;20151;-75
2022/11/04 00:34:32;;;;;;;48.85;34.75;;;;;;;;;;5125432;27;20030;-77
2022/11/04 00:36:58;;;;;;;43.00;29.77;;;;;;;;;;5118862;27;20354;-76
2022/11/04 00:39:23;;;;;;;49.80;35.55;;;;;;;;;;5117454;27;20353;-77
2022/11/04 00:41:49;;;;;;;53.90;38.45;;;;;;;;;;5123973;27;20027;-77
2022/11/04 00:44:14;;;;;;;42.25;31.85;;;;;;;;;;5124614;27;20112;-77
2022/11/04 00:46:39;;;;;;;47.67;33.72;;;;;;;;;;5113891;27;20117;-76
2022/11/04 00:49:05;;;;;;;66.22;46.00;;;;;;;;;;5111193;27;20031;-76
2022/11/04 00:51:30;;;;;;;45.63;34.67;;;;;;;;;;5113981;27;20019;-77
2022/11/04 00:53:57;;;;;;;46.25;35.15;;;;;;;;;;5122756;27;20026;-77
2022/11/04 00:56:22;;;;;;;42.42;32.83;;;;;;;;;;5124060;27;20047;-75
2022/11/04 00:58:48;;;;;;;72.57;50.85;;;;;;;;;;5123649;27;20061;-77
2022/11/04 01:01:17;;;;;;;62.88;48.85;;;;;;;;;;5119394;27;20047;-75
2022/11/04 01:03:43;;;;;;;46.17;36.42;;;;;;;;;;5118570;27;20023;-77
2022/11/04 01:06:08;;;;;;;43.28;33.63;;;;;;;;;;5112806;27;20023;-77
2022/11/04 01:08:34;;;;;;;39.25;31.40;;;;;;;;;;5124666;27;20434;-76
2022/11/04 01:11:03;;;;;;;40.53;30.55;;;;;;;;;;5105439;27;20462;-76
2022/11/04 01:13:28;;;;;;;44.10;33.33;;;;;;;;;;5124404;27;20118;-77
2022/11/04 01:15:56;;;;;;;47.03;34.92;;;;;;;;;;5106755;27;20138;-76
2022/11/04 01:18:22;;;;;;;41.55;32.72;;;;;;;;;;5123173;27;20455;-76
2022/11/04 01:20:47;;;;;;;43.53;34.28;;;;;;;;;;5114794;27;20033;-75
2022/11/04 01:23:12;;;;;;;44.53;36.00;;;;;;;;;;5114338;27;20019;-75
2022/11/04 01:25:40;;;;;;;50.15;32.45;;;;;;;;;;5110558;27;20023;-74
2022/11/04 01:28:05;;;;;;;45.15;33.03;;;;;;;;;;5119124;27;20027;-75
2022/11/04 01:30:30;;;;;;;44.00;33.10;;;;;;;;;;5122240;27;20080;-74
2022/11/04 01:32:56;;;;;;;45.83;33.55;;;;;;;;;;5123907;27;20035;-75
2022/11/04 01:35:21;;;;;;;41.55;32.15;;;;;;;;;;5121033;27;20019;-75
2022/11/04 01:37:46;;;;;;;48.60;37.05;;;;;;;;;;5122783;27;20434;-76
2022/11/04 01:40:12;;;;;;;49.03;34.70;;;;;;;;;;5121019;27;20035;-76
2022/11/04 01:42:37;;;;;;;38.65;31.30;;;;;;;;;;5122710;27;20033;-74
2022/11/04 01:45:03;;;;;;;34.95;26.58;;;;;;;;;;5109082;27;20055;-76
2022/11/04 01:47:35;;;;;;;40.58;31.08;;;;;;;;;;5117235;27;20059;-75
2022/11/04 01:50:13;;;;;;;46.15;34.22;;;;;;;;;;5108886;27;20058;-77
2022/11/04 01:52:41;;;;;;;42.65;32.60;;;;;;;;;;5104714;27;20093;-75
2022/11/04 01:55:11;;;;;;;40.50;32.17;;;;;;;;;;5110322;27;20027;-75
2022/11/04 01:57:39;;;;;;;37.15;29.90;;;;;;;;;;5122374;27;20083;-75
2022/11/04 02:00:06;;;;;;;35.15;28.60;;;;;;;;;;5110544;27;20122;-75
2022/11/04 02:02:31;;;;;;;34.63;26.98;;;;;;;;;;5110258;27;20023;-75
2022/11/04 02:04:57;;;;;;;36.30;28.08;;;;;;;;;;5111904;27;20023;-74
2022/11/04 02:07:22;;;;;;;36.03;28.58;;;;;;;;;;5121576;27;20057;-74
2022/11/04 02:09:48;;;;;;;31.88;25.30;;;;;;;;;;5122694;27;20034;-76
2022/11/04 02:14:57;;;;;;;39.28;29.92;;;;;;;;;;5115006;27;20366;-76
2022/11/04 02:17:23;;;;;;;34.70;26.75;;;;;;;;;;5108709;27;20035;-75
2022/11/04 02:20:00;;;;;;;32.42;26.45;;;;;;;;;;5112752;27;20023;-75
2022/11/04 02:22:44;;;;;;;33.83;25.88;;;;;;;;;;5120488;27;20059;-74
2022/11/04 02:25:12;;;;;;;34.08;24.40;;;;;;;;;;5118685;27;20027;-75
2022/11/04 02:27:41;;;;;;;30.35;23.35;;;;;;;;;;5116699;27;20038;-74
2022/11/04 02:30:06;;;;;;;32.05;24.08;;;;;;;;;;5121969;27;20019;-75
2022/11/04 02:32:47;;;;;;;32.03;25.30;;;;;;;;;;5109982;27;20035;-75
2022/11/04 02:35:39;;;;;;;32.30;24.75;;;;;;;;;;5122653;27;20046;-75
2022/11/04 02:38:17;;;;;;;32.53;25.88;;;;;;;;;;5116960;27;20046;-75
2022/11/04 02:40:56;;;;;;;33.20;25.33;;;;;;;;;;5121594;27;20023;-74
2022/11/04 02:43:22;;;;;;;;;;;;;;;;;;5121963;27;20058;-74
2022/11/04 02:45:49;;;;;;;68.73;48.67;;;;;;;;;;5113442;27;19947;-75
2022/11/04 02:48:14;;;;;;;64.88;49.03;;;;;;;;;;5117223;27;20023;-74
2022/11/04 02:50:43;;;;;;;72.93;50.15;;;;;;;;;;5109891;27;20031;-74
2022/11/04 02:53:15;;;;;;;65.40;39.80;;;;;;;;;;5114896;27;20023;-76
2022/11/04 02:55:43;;;;;;;50.10;36.28;;;;;;;;;;5109787;27;20023;-76
2022/11/04 02:58:12;;;;;;;64.78;45.53;;;;;;;;;;5119018;27;20043;-76
2022/11/04 03:00:39;;;;;;;72.13;48.30;;;;;;;;;;5120635;27;20023;-76
2022/11/04 03:03:09;;;;;;;57.40;40.33;;;;;;;;;;5119679;27;20953;-76
2022/11/04 03:05:36;;;;;;;56.90;39.65;;;;;;;;;;5113039;27;20042;-76
2022/11/04 03:08:07;;;;;;;61.63;42.08;;;;;;;;;;5108985;27;21365;-76
2022/11/04 03:10:35;;;;;;;52.22;35.60;;;;;;;;;;5120315;27;20055;-76
2022/11/04 03:13:18;;;;;;;44.67;31.33;;;;;;;;;;5120505;27;20029;-76
2022/11/04 03:15:49;;;;;;;45.80;33.22;;;;;;;;;;5121289;27;20031;-76
2022/11/04 03:18:20;;;;;;;44.83;33.92;;;;;;;;;;5120261;28;20458;-76
2022/11/04 03:20:47;;;;;;;47.88;33.63;;;;;;;;;;5113464;28;20023;-75
2022/11/04 03:23:12;;;;;;;47.90;36.10;;;;;;;;;;5108926;28;20106;-75
2022/11/04 03:25:44;;;;;;;43.63;30.08;;;;;;;;;;5111731;28;20028;-76
2022/11/04 03:28:09;;;;;;;46.88;33.10;;;;;;;;;;5119662;28;20023;-76
2022/11/04 03:30:38;;;;;;;38.88;27.15;;;;;;;;;;5115126;27;20023;-74
2022/11/04 03:33:14;;;;;;;41.20;26.80;;;;;;;;;;5125170;27;20042;-75
2022/11/04 03:35:40;;;;;;;40.30;28.17;;;;;;;;;;5126652;27;20107;-76
2022/11/04 03:38:05;;;;;;;39.95;28.15;;;;;;;;;;5126016;27;20068;-75
2022/11/04 03:40:30;;;;;;;43.67;29.88;;;;;;;;;;5124829;27;20103;-76
2022/11/04 03:43:14;;;;;;;43.83;29.33;;;;;;;;;;5125661;27;20038;-75
2022/11/04 03:45:41;;;;;;;46.78;33.67;;;;;;;;;;5116896;27;20026;-75
2022/11/04 03:48:06;;;;;;;42.22;32.47;;;;;;;;;;5113629;27;20733;-74
2022/11/04 03:50:34;;;;;;;41.83;29.35;;;;;;;;;;5125725;27;20030;-77
2022/11/04 03:53:00;;;;;;;35.35;28.27;;;;;;;;;;5125841;27;20490;-75
2022/11/04 03:55:43;;;;;;;47.22;33.22;;;;;;;;;;5114216;27;20122;-75
2022/11/04 03:58:18;;;;;;;46.10;30.35;;;;;;;;;;5123395;27;20763;-73
2022/11/04 04:00:52;;;;;;;40.75;28.20;;;;;;;;;;5112438;27;20019;-74
2022/11/04 04:03:22;;;;;;;43.58;30.30;;;;;;;;;;5115154;27;20059;-75
2022/11/04 04:05:56;;;;;;;45.40;31.63;;;;;;;;;;5119105;27;20083;-74
2022/11/04 04:08:21;;;;;;;50.97;33.28;;;;;;;;;;5118500;27;20445;-74
2022/11/04 04:11:22;;;;;;;97.25;55.95;;;;;;;;;;5124129;27;20126;-75
2022/11/04 04:13:52;;;;;;;63.20;43.78;;;;;;;;;;5021785;28;20759;-76
2022/11/04 04:16:36;;;;;;;42.47;34.30;;;;;;;;;;5009355;28;20095;-74
2022/11/04 04:19:16;;;;;;;39.63;31.63;;;;;;;;;;5012859;28;20053;-75
2022/11/04 04:21:44;;;;;;;42.03;31.60;;;;;;;;;;4999073;28;20041;-75
2022/11/04 04:27:35;;;;;;;48.85;35.55;;;;;;;;;;4988983;28;20053;-76
2022/11/04 04:30:08;;;;;;;53.92;40.38;;;;;;;;;;5019296;28;20144;-75
2022/11/04 04:32:38;;;;;;;50.22;37.00;;;;;;;;;;5021202;28;20511;-76
2022/11/04 04:37:51;;;;;;;83.72;70.45;;;;;;;;;;5017037;28;20113;-75
2022/11/04 04:45:48;;;;;;;56.92;44.53;;;;;;;;;;5021360;28;20095;-77
2022/11/04 04:48:14;;;;;;;57.72;43.25;;;;;;;;;;5080276;27;20050;-77
2022/11/04 04:50:41;;;;;;;62.45;43.20;;;;;;;;;;5124024;27;20426;-75
2022/11/04 04:53:06;;;;;;;68.35;45.72;;;;;;;;;;5123979;27;20118;-76
2022/11/04 04:55:31;;;;;;;81.97;62.15;;;;;;;;;;5112116;27;20110;-74
2022/11/04 04:57:57;;;;;;;89.72;58.65;;;;;;;;;;5123783;27;20019;-76
2022/11/04 05:00:23;;;;;;;82.82;58.63;;;;;;;;;;5120431;27;20031;-76
2022/11/04 05:02:48;;;;;;;87.85;65.82;;;;;;;;;;5106381;27;20023;-76
2022/11/04 05:05:14;;;;;;;94.68;70.03;;;;;;;;;;5109310;27;20027;-75
2022/11/04 05:07:39;;;;;;;85.32;63.05;;;;;;;;;;5108486;27;20110;-74
2022/11/04 05:10:06;;;;;;;98.93;73.70;;;;;;;;;;5109934;27;20031;-74
2022/11/04 05:15:17;;;;;;;57.53;39.92;;;;;;;;;;5109897;27;20084;-76
2022/11/04 05:17:42;;;;;;;54.78;39.55;;;;;;;;;;5110003;27;20031;-76
2022/11/04 05:20:08;;;;;;;83.88;60.60;;;;;;;;;;5106630;27;20055;-75
2022/11/04 05:22:33;;;;;;;80.65;61.50;;;;;;;;;;5107770;27;20035;-75
2022/11/04 05:24:58;;;;;;;103.68;69.45;;;;;;;;;;5110312;27;20038;-76
2022/11/04 05:27:24;;;;;;;117.68;77.75;;;;;;;;;;5110422;27;20031;-76
2022/11/04 05:29:49;;;;;;;116.43;74.72;;;;;;;;;;5109087;27;20027;-74
2022/11/04 05:32:14;;;;;;;99.38;65.45;;;;;;;;;;5108424;27;20448;-76
2022/11/04 05:34:40;;;;;;;75.80;52.45;;;;;;;;;;5110491;27;20415;-75
2022/11/04 05:37:05;;;;;;;65.10;47.13;;;;;;;;;;5116923;27;20150;-75
2022/11/04 05:39:30;;;;;;;78.10;53.72;;;;;;;;;;5111375;27;20106;-75
2022/11/04 05:41:56;;;;;;;72.53;49.30;;;;;;;;;;5109552;27;20377;-75
2022/11/04 05:44:21;;;;;;;71.55;54.50;;;;;;;;;;5112349;27;20335;-75
2022/11/04 05:46:46;;;;;;;71.10;51.22;;;;;;;;;;5115423;27;20031;-75
2022/11/04 05:49:12;;;;;;;63.08;48.30;;;;;;;;;;5111258;27;20039;-75
2022/11/04 05:51:37;;;;;;;51.25;41.15;;;;;;;;;;5118319;27;20023;-75
2022/11/04 05:54:03;;;;;;;55.65;42.63;;;;;;;;;;5109453;27;20035;-75
2022/11/04 05:56:28;;;;;;;68.53;48.97;;;;;;;;;;5110784;27;20482;-76
2022/11/04 05:58:54;;;;;;;68.45;51.22;;;;;;;;;;5119409;27;20404;-75
2022/11/04 06:01:27;;;;;;;81.20;61.15;;;;;;;;;;5120612;27;20166;-75
2022/11/04 06:03:53;;;;;;;88.30;66.03;;;;;;;;;;5112081;27;20043;-75
2022/11/04 06:06:19;;;;;;;80.32;62.33;;;;;;;;;;5108317;27;20371;-75
2022/11/04 06:08:44;;;;;;;51.97;41.17;;;;;;;;;;5115147;27;20075;-74
2022/11/04 06:11:10;;;;;;;48.92;36.22;;;;;;;;;;5119074;27;20027;-78
2022/11/04 06:13:35;;;;;;;49.45;39.13;;;;;;;;;;5121694;27;20023;-77
2022/11/04 06:16:01;;;;;;;75.30;57.13;;;;;;;;;;5117563;27;20103;-78
2022/11/04 06:18:26;;;;;;;99.10;71.95;;;;;;;;;;5119810;27;20053;-76
2022/11/04 06:21:11;;;;;;;88.57;64.82;;;;;;;;;;5105687;27;20039;-77
2022/11/04 06:23:36;;;;;;;85.72;58.75;;;;;;;;;;5109070;27;20031;-77
2022/11/04 06:26:01;;;;;;;92.10;63.15;;;;;;;;;;5107909;27;20485;-78
2022/11/04 06:28:27;;;;;;;96.95;59.80;;;;;;;;;;5108400;27;20026;-76
2022/11/04 06:30:52;;;;;;;92.40;59.97;;;;;;;;;;5108852;27;20101;-75
2022/11/04 06:33:17;;;;;;;93.20;63.40;;;;;;;;;;5118232;27;20101;-74
2022/11/04 06:35:42;;;;;;;81.35;59.35;;;;;;;;;;5122022;27;20159;-79
2022/11/04 06:38:08;;;;;;;67.22;47.92;;;;;;;;;;5115726;27;20061;-77
2022/11/04 06:40:33;;;;;;;50.25;37.65;;;;;;;;;;5118254;27;20156;-73
2022/11/04 06:42:58;;;;;;;44.33;35.58;;;;;;;;;;5122120;27;20047;-74
2022/11/04 06:45:24;;;;;;;51.13;39.67;;;;;;;;;;5123041;27;20126;-74
2022/11/04 06:47:49;;;;;;;57.03;43.65;;;;;;;;;;5120624;27;20027;-74
2022/11/04 06:50:14;;;;;;;60.28;44.80;;;;;;;;;;5104306;28;20023;-76
2022/11/04 06:52:40;;;;;;;56.80;46.38;;;;;;;;;;5119762;27;20035;-74
2022/11/04 06:55:05;;;;;;;58.25;42.60;;;;;;;;;;5120237;27;20042;-73
2022/11/04 06:57:31;;;;;;;45.08;36.58;;;;;;;;;;5122661;27;20027;-73
2022/11/04 06:59:56;;;;;;;58.58;46.30;;;;;;;;;;5121850;27;20939;-73
2022/11/04 07:02:21;;;;;;;70.03;53.25;;;;;;;;;;5122221;27;20031;-74
2022/11/04 07:04:47;;;;;;;79.40;56.97;;;;;;;;;;5122548;27;20019;-73
2022/11/04 07:07:12;;;;;;;67.03;42.92;;;;;;;;;;5122404;27;20023;-73
2022/11/04 07:09:37;;;;;;;65.18;41.58;;;;;;;;;;5122803;27;20034;-74
2022/11/04 07:12:03;;;;;;;174.00;122.45;;;;;;;;;;5121371;27;20030;-73
2022/11/04 07:14:28;;;;;;;67.68;44.67;;;;;;;;;;5122040;27;20035;-72
2022/11/04 07:16:53;;;;;;;45.33;33.67;;;;;;;;;;5120152;27;20046;-73
2022/11/04 07:19:19;;;;;;;68.55;50.88;;;;;;;;;;5119601;28;20027;-73
2022/11/04 07:21:44;;;;;;;45.85;34.72;;;;;;;;;;5122258;28;20031;-73
2022/11/04 07:24:09;;;;;;;40.78;31.98;;;;;;;;;;5121821;28;20034;-73
2022/11/04 07:26:35;;;;;;;40.90;32.13;;;;;;;;;;5121378;28;20035;-74
2022/11/04 07:29:00;;;;;;;54.03;40.78;;;;;;;;;;5120583;28;20023;-75
2022/11/04 07:31:26;;;;;;;42.83;31.48;;;;;;;;;;5121932;28;20461;-73
2022/11/04 07:33:52;;;;;;;28.67;24.02;;;;;;;;;;5119293;28;20354;-75
2022/11/04 07:36:17;;;;;;;35.42;27.92;;;;;;;;;;5120311;28;20031;-76
2022/11/04 07:38:43;;;;;;;31.67;25.40;;;;;;;;;;5120225;28;20073;-74
2022/11/04 07:41:08;;;;;;;34.38;25.20;;;;;;;;;;5120360;28;20105;-75
2022/11/04 07:43:34;;;;;;;32.60;24.05;;;;;;;;;;5122502;28;20043;-75
2022/11/04 07:46:00;;;;;;;38.65;27.13;;;;;;;;;;5120411;28;20102;-75
2022/11/04 07:48:26;;;;;;;43.40;33.85;;;;;;;;;;5120320;28;20038;-75
2022/11/04 07:50:54;;;;;;;40.65;31.33;;;;;;;;;;5120498;28;20023;-75
2022/11/04 07:53:19;;;;;;;40.75;30.90;;;;;;;;;;5120534;28;20031;-74
2022/11/04 07:55:48;;;;;;;37.30;30.00;;;;;;;;;;5122611;28;20011;-74
2022/11/04 07:58:13;;;;;;;45.85;31.52;;;;;;;;;;5119423;28;20038;-74
2022/11/04 08:00:38;;;;;;;37.30;28.73;;;;;;;;;;5122227;28;20030;-74
2022/11/04 08:03:04;;;;;;;32.05;27.17;;;;;;;;;;5121900;28;20035;-76
2022/11/04 08:05:29;;;;;;;49.35;34.40;;;;;;;;;;5121807;28;20075;-78
2022/11/04 08:07:56;;;;;;;36.50;29.08;;;;;;;;;;5121893;28;20155;-74
2022/11/04 08:10:21;;;;;;;50.03;37.63;;;;;;;;;;5120646;28;20438;-75
2022/11/04 08:12:47;;;;;;;47.40;37.60;;;;;;;;;;5121160;28;20031;-75
2022/11/04 08:15:12;;;;;;;49.03;36.38;;;;;;;;;;5121200;27;20030;-76
2022/11/04 08:17:39;;;;;;;44.70;35.45;;;;;;;;;;5124655;27;20061;-75
2022/11/04 08:20:04;;;;;;;69.78;34.22;;;;;;;;;;5126230;27;20023;-75
2022/11/04 08:22:30;;;;;;;44.15;32.58;;;;;;;;;;5123195;27;20323;-74
2022/11/04 08:24:55;;;;;;;45.08;31.90;;;;;;;;;;5126231;27;20161;-74
2022/11/04 08:27:22;;;;;;;44.22;31.60;;;;;;;;;;5126084;27;20334;-76
2022/11/04 08:29:47;;;;;;;60.10;33.20;;;;;;;;;;5124829;27;20057;-76
2022/11/04 08:32:12;;;;;;;41.63;31.08;;;;;;;;;;5124891;27;20073;-75
2022/11/04 08:34:38;;;;;;;35.78;29.48;;;;;;;;;;5124774;27;20023;-74
2022/11/04 08:37:04;;;;;;;37.65;30.25;;;;;;;;;;5124300;27;20030;-75
2022/11/04 08:39:29;;;;;;;39.75;29.10;;;;;;;;;;5124340;27;20023;-74
2022/11/04 08:41:54;;;;;;;36.03;28.52;;;;;;;;;;5125216;27;20031;-75
2022/11/04 08:44:21;;;;;;;38.60;27.63;;;;;;;;;;5124474;27;20362;-76
2022/11/04 08:46:46;;;;;;;47.45;31.05;;;;;;;;;;5125512;27;20023;-74
2022/11/04 08:49:11;;;;;;;78.00;41.70;;;;;;;;;;5123726;27;20023;-76
2022/11/04 08:51:42;;;;;;;37.33;28.70;;;;;;;;;;5125194;27;20030;-76
2022/11/04 08:54:08;;;;;;;34.80;28.02;;;;;;;;;;5123391;27;20042;-77
2022/11/04 08:56:34;;;;;;;35.58;27.83;;;;;;;;;;5123953;27;20463;-74
2022/11/04 08:59:03;;;;;;;97.40;50.67;;;;;;;;;;5124219;27;20019;-74
2022/11/04 09:01:30;;;;;;;60.42;36.13;;;;;;;;;;5121901;27;20079;-75
2022/11/04 09:03:55;;;;;;;57.15;36.72;;;;;;;;;;5125011;27;20099;-76
2022/11/04 09:06:22;;;;;;;32.95;26.10;;;;;;;;;;5125764;27;20035;-75
2022/11/04 09:08:48;;;;;;;35.60;28.02;;;;;;;;;;5124670;27;20019;-75
2022/11/04 09:11:14;;;;;;;36.88;26.45;;;;;;;;;;5124962;27;20346;-76
2022/11/04 09:13:39;;;;;;;29.75;24.95;;;;;;;;;;5122956;27;20109;-76
2022/11/04 09:16:05;;;;;;;110.78;49.72;;;;;;;;;;5124497;27;20591;-74
2022/11/04 09:18:31;;;;;;;42.30;29.08;;;;;;;;;;5124126;27;20118;-76
2022/11/04 09:21:03;;;;;;;33.65;27.33;;;;;;;;;;5124099;27;20034;-75
2022/11/04 09:23:28;;;;;;;28.35;23.45;;;;;;;;;;5123411;27;20096;-75
2022/11/04 09:25:57;;;;;;;28.10;24.90;;;;;;;;;;5124020;27;20499;-75
2022/11/04 09:28:23;;;;;;;43.03;30.53;;;;;;;;;;5106462;27;20791;-76
2022/11/04 09:30:48;;;;;;;30.52;24.45;;;;;;;;;;5123106;27;20019;-77
2022/11/04 09:33:14;;;;;;;30.95;23.50;;;;;;;;;;5122796;27;20031;-76
2022/11/04 09:35:39;;;;;;;30.13;22.40;;;;;;;;;;5124655;27;20027;-75
2022/11/04 09:38:05;;;;;;;29.10;22.73;;;;;;;;;;5124128;27;20062;-76
2022/11/04 09:40:32;;;;;;;27.05;22.08;;;;;;;;;;5124205;27;20027;-76
2022/11/04 09:43:22;;;;;;;30.67;22.05;;;;;;;;;;5124622;27;20030;-76
2022/11/04 09:45:47;;;;;;;;;;;;;;;;;;5123793;27;20031;-76
2022/11/04 09:48:34;;;;;;;28.23;22.23;;;;;;;;;;5123864;27;19911;-77
2022/11/04 09:51:04;;;;;;;26.45;22.42;;;;;;;;;;5123904;27;20023;-76
2022/11/04 09:53:37;;;;;;;30.35;24.23;;;;;;;;;;5123507;27;20027;-77
2022/11/04 09:56:07;;;;;;;32.28;23.15;;;;;;;;;;5122959;27;20350;-76
2022/11/04 09:58:35;;;;;;;28.80;23.88;;;;;;;;;;5124443;27;20030;-77
2022/11/04 10:01:20;;;;;;;29.83;21.67;;;;;;;;;;5123492;27;20488;-76
2022/11/04 10:04:07;;;;;;;27.05;20.48;;;;;;;;;;5123920;27;20059;-77
2022/11/04 10:06:56;;;;;;;27.27;20.35;;;;;;;;;;5123964;27;20338;-76
2022/11/04 10:09:21;;;;;;;26.67;22.73;;;;;;;;;;5113584;27;20471;-77
2022/11/04 10:11:52;;;;;;;25.08;21.98;;;;;;;;;;5122913;27;20279;-77
2022/11/04 10:14:18;;;;;;;28.95;19.75;;;;;;;;;;5123190;27;20099;-78
2022/11/04 10:16:50;;;;;;;23.98;19.00;;;;;;;;;;5123437;27;20047;-76
2022/11/04 10:19:39;;;;;;;22.65;17.73;;;;;;;;;;5122682;27;20036;-78
2022/11/04 10:22:17;;;;;;;22.92;17.73;;;;;;;;;;5121469;27;20022;-77
2022/11/04 10:25:21;;;;;;;25.80;18.67;;;;;;;;;;5123000;27;20054;-77
2022/11/04 10:27:48;;;;;;;26.25;17.90;;;;;;;;;;5040898;28;20584;-77
2022/11/04 10:30:17;;;;;;;31.25;22.55;;;;;;;;;;5040329;28;20025;-75
2022/11/04 10:32:48;;;;;;;27.10;20.90;;;;;;;;;;5040007;28;20425;-77
2022/11/04 10:35:31;;;;;;;24.92;19.73;;;;;;;;;;5039369;28;20033;-76
2022/11/04 10:38:00;;;;;;;27.55;20.25;;;;;;;;;;5040179;28;20186;-76
2022/11/04 10:40:28;;;;;;;34.67;22.55;;;;;;;;;;5041089;28;20123;-76
2022/11/04 10:42:54;;;;;;;33.08;21.85;;;;;;;;;;5038823;28;20124;-76
2022/11/04 10:45:24;;;;;;;26.70;21.08;;;;;;;;;;5039814;28;20048;-77
2022/11/04 10:47:58;;;;;;;34.72;22.65;;;;;;;;;;5040979;28;20352;-76
2022/11/04 10:50:36;;;;;;;25.85;19.70;;;;;;;;;;5038575;28;20032;-77
2022/11/04 10:53:08;;;;;;;36.35;23.35;;;;;;;;;;5040423;28;20037;-77
2022/11/04 10:55:34;;;;;;;37.58;22.42;;;;;;;;;;5041164;28;20037;-80
2022/11/04 10:57:59;;;;;;;47.42;31.85;;;;;;;;;;5062279;27;20099;-77
2022/11/04 11:00:35;;;;;;;51.25;29.85;;;;;;;;;;5121172;27;20072;-77
2022/11/04 11:03:00;;;;;;;36.13;26.67;;;;;;;;;;5122535;27;20080;-75
2022/11/04 11:05:27;;;;;;;32.85;23.67;;;;;;;;;;5123655;27;20467;-78
2022/11/04 11:07:54;;;;;;;27.13;20.90;;;;;;;;;;5122236;27;20027;-76
2022/11/04 11:10:21;;;;;;;27.25;22.35;;;;;;;;;;5123131;27;20030;-76
2022/11/04 11:12:55;;;;;;;27.95;21.98;;;;;;;;;;5104129;27;20051;-76
2022/11/04 11:15:23;;;;;;;27.13;22.67;;;;;;;;;;5120524;27;20023;-76
2022/11/04 11:17:49;;;;;;;28.60;21.73;;;;;;;;;;5121679;27;20047;-75
2022/11/04 11:20:18;;;;;;;27.83;21.75;;;;;;;;;;5120524;28;20058;-78
2022/11/04 11:22:44;;;;;;;30.08;21.23;;;;;;;;;;5122743;28;20019;-77
2022/11/04 11:25:25;;;;;;;23.75;21.15;;;;;;;;;;5123379;28;20249;-75
2022/11/04 11:27:54;;;;;;;24.20;19.60;;;;;;;;;;5121058;28;20034;-77
2022/11/04 11:30:24;;;;;;;28.90;22.20;;;;;;;;;;5122074;28;20055;-75
2022/11/04 11:32:54;;;;;;;31.25;21.77;;;;;;;;;;5122141;28;20027;-76
2022/11/04 11:35:21;;;;;;;25.70;20.90;;;;;;;;;;5121742;28;20110;-76
2022/11/04 11:37:47;;;;;;;25.85;21.67;;;;;;;;;;5104200;28;20337;-80
2022/11/04 11:40:26;;;;;;;25.85;21.65;;;;;;;;;;5120073;28;20100;-76
2022/11/04 11:42:51;;;;;;;29.17;20.58;;;;;;;;;;5121523;28;20037;-76
2022/11/04 11:45:19;;;;;;;25.73;21.00;;;;;;;;;;5122353;28;20046;-76
2022/11/04 11:47:46;;;;;;;29.45;22.48;;;;;;;;;;5122173;28;20028;-77
2022/11/04 11:50:16;;;;;;;26.50;20.50;;;;;;;;;;5122058;27;20023;-77
2022/11/04 11:52:42;;;;;;;29.52;20.88;;;;;;;;;;5125951;27;20027;-76
2022/11/04 11:55:10;;;;;;;29.17;23.13;;;;;;;;;;5126076;27;20335;-77
2022/11/04 11:57:45;;;;;;;33.90;25.58;;;;;;;;;;5126375;27;20059;-76
2022/11/04 12:00:14;;;;;;;33.20;24.25;;;;;;;;;;5124571;27;20220;-76
2022/11/04 12:02:57;;;;;;;29.45;23.88;;;;;;;;;;5124486;27;20045;-75
2022/11/04 12:05:43;;;;;;;30.85;23.15;;;;;;;;;;5123795;27;20055;-75
2022/11/04 12:08:24;;;;;;;27.52;21.05;;;;;;;;;;5124762;27;20075;-75
2022/11/04 12:10:57;;;;;;;28.20;22.73;;;;;;;;;;5123888;27;20027;-76
2022/11/04 12:13:25;;;;;;;27.75;21.60;;;;;;;;;;5126718;27;20049;-77
2022/11/04 12:15:57;;;;;;;27.90;21.50;;;;;;;;;;5126220;27;20106;-76
2022/11/04 12:18:25;;;;;;;29.13;21.70;;;;;;;;;;5126498;27;20341;-76
2022/11/04 12:20:58;;;;;;;30.42;24.30;;;;;;;;;;5126049;27;20458;-77
2022/11/04 12:23:23;;;;;;;37.72;30.25;;;;;;;;;;5105759;27;20034;-75
2022/11/04 12:25:49;;;;;;;32.28;25.73;;;;;;;;;;5126670;27;20072;-77
2022/11/04 12:28:33;;;;;;;37.03;25.75;;;;;;;;;;5125587;27;20066;-76
2022/11/04 12:31:08;;;;;;;31.95;24.20;;;;;;;;;;5125026;27;20019;-76
2022/11/04 12:33:42;;;;;;;30.30;26.42;;;;;;;;;;5103418;27;20388;-76
2022/11/04 12:36:08;;;;;;;31.20;23.83;;;;;;;;;;5126623;27;20114;-75
2022/11/04 12:38:39;;;;;;;28.13;23.65;;;;;;;;;;5125915;27;20144;-77
2022/11/04 12:41:08;;;;;;;29.42;24.33;;;;;;;;;;5125737;27;20038;-77
2022/11/04 12:43:34;;;;;;;;;;;;;;;;;;5125843;27;20449;-76
2022/11/04 12:46:05;;;;;;;33.17;23.73;;;;;;;;;;5126562;27;19907;-76
2022/11/04 12:48:49;;;;;;;31.27;24.30;;;;;;;;;;5125436;27;21212;-77
2022/11/04 12:51:23;;;;;;;29.05;25.92;;;;;;;;;;5125634;27;20027;-75
2022/11/04 12:54:01;;;;;;;31.83;26.85;;;;;;;;;;5125794;27;20046;-76
2022/11/04 12:56:37;;;;;;;33.60;27.85;;;;;;;;;;5124344;27;20043;-76
2022/11/04 12:59:17;;;;;;;30.45;26.77;;;;;;;;;;5125337;27;20082;-75
2022/11/04 13:01:48;;;;;;;34.55;29.42;;;;;;;;;;5123370;27;20425;-76
2022/11/04 13:04:34;;;;;;;45.92;37.42;;;;;;;;;;5124544;27;20038;-76
2022/11/04 13:07:02;;;;;;;46.38;40.78;;;;;;;;;;5122004;27;20019;-75
2022/11/04 13:09:45;;;;;;;64.82;57.75;;;;;;;;;;5123925;27;20019;-75
2022/11/04 13:12:18;;;;;;;47.22;39.83;;;;;;;;;;5124172;27;20438;-76
2022/11/04 13:14:44;;;;;;;37.35;30.85;;;;;;;;;;5122138;27;20779;-76
2022/11/04 13:17:11;;;;;;;34.85;28.48;;;;;;;;;;5122156;27;20108;-75
2022/11/04 13:19:41;;;;;;;30.52;26.73;;;;;;;;;;5124864;27;20112;-75
2022/11/04 13:22:14;;;;;;;34.13;28.38;;;;;;;;;;5122153;27;20015;-76
2022/11/04 13:24:44;;;;;;;32.78;27.17;;;;;;;;;;5124508;27;20431;-75
2022/11/04 13:27:32;;;;;;;38.30;30.73;;;;;;;;;;5122331;27;20124;-75
2022/11/04 13:30:21;;;;;;;35.40;29.75;;;;;;;;;;5122955;27;21119;-75
2022/11/04 13:32:47;;;;;;;30.63;27.05;;;;;;;;;;5111035;27;20115;-77
2022/11/04 13:35:39;;;;;;;29.95;25.40;;;;;;;;;;5123397;27;20027;-75
2022/11/04 13:38:11;;;;;;;32.00;26.60;;;;;;;;;;5090242;27;20039;-77
2022/11/04 13:40:55;;;;;;;31.77;26.48;;;;;;;;;;5123092;27;20091;-76
2022/11/04 13:43:39;;;;;;;35.13;26.30;;;;;;;;;;5120714;27;20453;-78
2022/11/04 13:46:27;;;;;;;34.33;29.30;;;;;;;;;;5111729;27;20085;-77
2022/11/04 13:49:10;;;;;;;33.92;27.10;;;;;;;;;;5110202;27;20039;-78
2022/11/04 13:51:46;;;;;;;39.97;29.80;;;;;;;;;;5113219;27;20031;-77
2022/11/04 13:54:32;;;;;;;34.22;28.88;;;;;;;;;;5107072;27;20027;-77
2022/11/04 13:57:16;;;;;;;32.30;27.30;;;;;;;;;;5120550;27;20070;-78
2022/11/04 14:00:01;;;;;;;29.05;25.38;;;;;;;;;;5113044;27;20341;-77
2022/11/04 14:02:41;;;;;;;35.03;26.52;;;;;;;;;;5113250;27;20114;-77
2022/11/04 14:05:25;;;;;;;35.30;26.33;;;;;;;;;;5107447;27;20115;-75
2022/11/04 14:08:02;;;;;;;38.85;26.42;;;;;;;;;;5108162;27;20027;-76
2022/11/04 14:10:53;;;;;;;31.73;26.58;;;;;;;;;;5112080;27;20096;-76
2022/11/04 14:13:25;;;;;;;34.38;28.73;;;;;;;;;;5106903;27;20113;-76
2022/11/04 14:16:29;;;;;;;39.22;31.30;;;;;;;;;;5122660;27;20023;-77
2022/11/04 14:18:54;;;;;;;56.58;42.65;;;;;;;;;;5122457;27;20688;-75
2022/11/04 14:21:20;;;;;;;80.78;56.38;;;;;;;;;;5104750;27;20027;-77
2022/11/04 14:23:50;;;;;;;103.10;68.72;;;;;;;;;;5114479;27;20568;-74
2022/11/04 14:26:17;;;;;;;103.85;69.13;;;;;;;;;;5106758;27;20019;-75
2022/11/04 14:28:45;;;;;;;60.70;44.50;;;;;;;;;;5106538;27;20035;-75
2022/11/04 14:31:14;;;;;;;43.10;33.13;;;;;;;;;;5109153;27;20439;-74
2022/11/04 14:33:56;;;;;;;35.10;29.67;;;;;;;;;;5107464;27;20026;-75
2022/11/04 14:36:30;;;;;;;32.95;29.30;;;;;;;;;;5106740;27;20027;-74
2022/11/04 14:38:56;;;;;;;33.90;28.02;;;;;;;;;;5107810;27;20038;-76
2022/11/04 14:41:24;;;;;;;39.35;30.42;;;;;;;;;;5108361;27;20019;-76
2022/11/04 14:43:52;;;;;;;50.92;40.85;;;;;;;;;;5102252;27;20028;-78
2022/11/04 14:46:23;;;;;;;42.20;31.95;;;;;;;;;;5120807;27;20031;-76
2022/11/04 14:48:51;;;;;;;36.70;30.23;;;;;;;;;;5112528;27;20020;-76
2022/11/04 14:51:27;;;;;;;40.30;28.50;;;;;;;;;;5112380;27;20022;-77
2022/11/04 14:54:01;;;;;;;42.75;34.42;;;;;;;;;;5107866;27;20438;-77
2022/11/04 14:56:27;;;;;;;36.20;31.63;;;;;;;;;;5107679;27;20019;-76
2022/11/04 14:58:57;;;;;;;33.58;29.13;;;;;;;;;;5108847;27;20469;-77
2022/11/04 15:01:23;;;;;;;32.22;26.48;;;;;;;;;;5110256;27;20370;-76
2022/11/04 15:03:49;;;;;;;34.55;25.52;;;;;;;;;;5108960;27;20023;-77
2022/11/04 15:06:22;;;;;;;34.58;25.30;;;;;;;;;;5108746;27;20023;-77